createdAt,value
2022-09-07T00:02:54.083Z,26.40
2022-09-07T00:08:05.988Z,26.40
2022-09-07T00:13:08.856Z,26.42
2022-09-07T00:18:10.821Z,26.39
2022-09-07T00:23:16.805Z,26.35
2022-09-07T00:28:32.963Z,26.30
2022-09-07T00:33:35.012Z,26.25
2022-09-07T00:38:39.640Z,26.19
2022-09-07T00:44:06.234Z,26.14
2022-09-07T00:49:15.720Z,26.09
2022-09-07T00:54:24.658Z,25.97
2022-09-07T00:59:32.681Z,25.82
2022-09-07T01:05:38.252Z,25.66
2022-09-07T01:10:54.672Z,25.59
2022-09-07T01:16:18.721Z,25.51
2022-09-07T01:21:52.313Z,25.46
2022-09-07T01:27:12.877Z,25.42
2022-09-07T01:32:44.258Z,25.40
2022-09-07T01:38:12.644Z,25.37
2022-09-07T01:43:30.791Z,25.32
2022-09-07T01:48:40.945Z,25.27
2022-09-07T01:53:55.615Z,25.25
2022-09-07T01:59:14.586Z,25.19
2022-09-07T02:04:21.604Z,25.14
2022-09-07T02:09:32.896Z,25.11
2022-09-07T02:14:37.770Z,25.04
2022-09-07T02:19:53.966Z,24.99
2022-09-07T02:25:07.438Z,24.94
2022-09-07T02:30:10.275Z,24.89
2022-09-07T02:35:12.798Z,24.87
2022-09-07T02:40:20.741Z,24.84
2022-09-07T02:45:47.148Z,24.78
2022-09-07T02:51:23.807Z,24.72
2022-09-07T02:56:38.352Z,24.64
2022-09-07T03:02:31.060Z,24.56
2022-09-07T03:08:11.967Z,24.55
2022-09-07T03:13:27.169Z,24.58
2022-09-07T03:18:29.240Z,24.59
2022-09-07T03:23:31.689Z,24.58
2022-09-07T03:28:33.731Z,24.56
2022-09-07T03:33:35.661Z,24.52
2022-09-07T03:38:37.734Z,24.50
2022-09-07T03:43:40.397Z,24.48
2022-09-07T03:48:42.325Z,24.47
2022-09-07T03:53:46.613Z,24.43
2022-09-07T03:58:49.908Z,24.39
2022-09-07T04:03:52.661Z,24.38
2022-09-07T04:08:56.354Z,24.35
2022-09-07T04:13:58.598Z,24.32
2022-09-07T04:19:04.690Z,24.28
2022-09-07T04:24:06.936Z,24.25
2022-09-07T04:29:09.897Z,24.17
2022-09-07T04:34:12.198Z,24.12
2022-09-07T04:39:14.121Z,24.09
2022-09-07T04:44:17.113Z,24.04
2022-09-07T04:49:20.386Z,24.05
2022-09-07T04:54:27.481Z,24.06
2022-09-07T04:59:33.778Z,24.04
2022-09-07T05:04:39.097Z,24.06
2022-09-07T05:09:41.528Z,24.09
2022-09-07T05:14:43.553Z,24.08
2022-09-07T05:19:45.596Z,24.07
2022-09-07T05:24:54.496Z,24.07
2022-09-07T05:30:04.572Z,24.11
2022-09-07T05:35:12.229Z,24.12
2022-09-07T05:40:15.808Z,24.09
2022-09-07T05:45:18.143Z,24.10
2022-09-07T05:50:20.215Z,24.13
2022-09-07T05:55:29.977Z,24.11
2022-09-07T06:00:34.111Z,24.12
2022-09-07T06:05:36.170Z,24.14
2022-09-07T06:15:44.431Z,24.24
2022-09-07T06:20:46.466Z,24.27
2022-09-07T06:25:50.010Z,24.31
2022-09-07T06:30:52.006Z,24.40
2022-09-07T06:36:01.596Z,24.50
2022-09-07T06:51:56.872Z,24.62
2022-09-07T06:56:59.071Z,24.70
2022-09-07T07:02:01.187Z,24.84
2022-09-07T07:07:03.210Z,25.01
2022-09-07T07:12:09.429Z,25.23
2022-09-07T07:17:13.913Z,25.44
2022-09-07T07:22:45.687Z,25.59
2022-09-07T07:27:39.132Z,25.58
2022-09-07T07:32:42.471Z,25.71
2022-09-07T07:43:36.600Z,26.12
2022-09-07T07:54:29.434Z,26.61
2022-09-07T07:59:31.397Z,26.89
2022-09-07T08:04:35.131Z,27.10
2022-09-07T08:15:52.289Z,27.78
2022-09-07T08:20:59.876Z,27.90
2022-09-07T08:26:03.796Z,27.87
2022-09-07T08:37:08.661Z,28.02
2022-09-07T08:42:33.381Z,28.21
2022-09-07T08:47:52.263Z,28.61
2022-09-07T08:53:12.552Z,28.93
2022-09-07T08:58:47.565Z,29.09
2022-09-07T09:09:10.717Z,29.27
2022-09-07T09:14:40.892Z,29.49
2022-09-07T09:20:19.182Z,29.76
2022-09-07T09:25:35.385Z,29.78
2022-09-07T09:30:37.659Z,29.92
2022-09-07T09:35:42.308Z,29.91
2022-09-07T09:40:53.141Z,30.00
2022-09-07T09:46:13.020Z,30.12
2022-09-07T09:56:40.834Z,30.48
2022-09-07T10:07:18.352Z,30.67
2022-09-07T10:12:29.620Z,30.41
2022-09-07T10:17:43.048Z,30.13
2022-09-07T10:22:57.123Z,30.22
2022-09-07T10:28:17.333Z,30.52
2022-09-07T10:33:43.236Z,30.31
2022-09-07T10:38:48.919Z,30.25
2022-09-07T10:43:52.027Z,30.24
2022-09-07T10:49:16.690Z,30.15
2022-09-07T10:54:33.906Z,29.87
2022-09-07T11:00:09.696Z,29.61
2022-09-07T11:05:44.178Z,29.38
2022-09-07T11:17:05.814Z,29.37
2022-09-07T11:22:33.121Z,29.60
2022-09-07T11:27:53.013Z,29.54
2022-09-07T11:33:33.673Z,29.46
2022-09-07T11:38:39.206Z,29.36
2022-09-07T11:43:48.333Z,29.30
2022-09-07T11:48:57.935Z,29.35
2022-09-07T11:54:50.381Z,29.56
2022-09-07T12:00:12.132Z,29.96
2022-09-07T12:05:55.531Z,30.30
2022-09-07T12:11:08.258Z,30.51
2022-09-07T12:17:00.645Z,30.40
2022-09-07T12:22:02.746Z,30.26
2022-09-07T12:27:26.454Z,30.51
2022-09-07T12:32:55.396Z,30.45
2022-09-07T12:38:21.588Z,30.29
2022-09-07T12:43:23.451Z,30.11
2022-09-07T12:49:05.140Z,30.08
2022-09-07T12:54:24.875Z,30.00
2022-09-07T12:59:51.562Z,29.99
2022-09-07T13:05:30.662Z,29.92
2022-09-07T13:10:38.209Z,29.76
2022-09-07T13:15:47.049Z,29.53
2022-09-07T13:21:09.595Z,29.42
2022-09-07T13:26:51.296Z,29.47
2022-09-07T13:32:00.209Z,29.49
2022-09-07T13:37:05.026Z,29.57
2022-09-07T13:42:13.148Z,29.61
2022-09-07T13:47:33.670Z,29.59
2022-09-07T13:52:55.747Z,29.49
2022-09-07T13:58:18.169Z,29.39
2022-09-07T14:03:22.684Z,29.30
2022-09-07T14:08:39.223Z,29.31
2022-09-07T14:13:41.679Z,29.44
2022-09-07T14:18:45.386Z,29.46
2022-09-07T14:23:58.193Z,29.49
2022-09-07T14:29:01.590Z,29.36
2022-09-07T14:34:03.893Z,29.25
2022-09-07T14:39:07.267Z,29.11
2022-09-07T14:44:33.014Z,29.00
2022-09-07T14:49:37.896Z,28.97
2022-09-07T14:54:43.732Z,28.97
2022-09-07T14:59:47.868Z,29.00
2022-09-07T15:05:15.748Z,28.87
2022-09-07T15:10:21.101Z,28.83
2022-09-07T15:15:26.954Z,28.81
2022-09-07T15:20:43.406Z,28.83
2022-09-07T15:25:51.865Z,28.95
2022-09-07T15:36:17.689Z,28.99
2022-09-07T15:41:24.214Z,29.02
2022-09-07T15:46:26.571Z,28.92
2022-09-07T16:13:16.257Z,28.87
2022-09-07T16:18:31.289Z,28.90
2022-09-07T16:23:33.435Z,28.95
2022-09-07T16:28:39.905Z,28.91
2022-09-07T16:33:41.950Z,28.82
2022-09-07T16:38:48.790Z,28.81
2022-09-07T16:43:52.218Z,28.77
2022-09-07T16:49:03.431Z,28.61
2022-09-07T16:54:06.069Z,28.51
2022-09-07T16:59:11.651Z,28.47
2022-09-07T17:04:14.701Z,28.44
2022-09-07T17:09:16.625Z,28.40
2022-09-07T17:14:21.648Z,28.33
2022-09-07T17:19:31.125Z,28.24
2022-09-07T17:24:33.281Z,28.23
2022-09-07T17:29:44.295Z,28.26
2022-09-07T17:34:46.146Z,28.29
2022-09-07T17:39:48.468Z,28.31
2022-09-07T17:44:53.583Z,28.33
2022-09-07T17:50:03.673Z,28.32
2022-09-07T17:55:11.288Z,28.29
2022-09-07T18:00:14.146Z,28.23
2022-09-07T18:05:16.332Z,28.20
2022-09-07T18:10:18.522Z,28.16
2022-09-07T18:15:22.245Z,28.13
2022-09-07T18:20:24.949Z,28.08
2022-09-07T18:25:27.991Z,28.05
2022-09-07T18:30:29.949Z,28.04
2022-09-07T18:35:32.208Z,28.02
2022-09-07T18:40:38.233Z,27.99
2022-09-07T18:45:40.355Z,27.97
2022-09-07T18:50:42.296Z,27.98
2022-09-07T18:55:50.736Z,27.98
2022-09-07T19:01:00.257Z,27.96
2022-09-07T19:06:08.590Z,27.92
2022-09-07T19:11:13.598Z,27.90
2022-09-07T19:16:18.452Z,27.88
2022-09-07T19:21:24.190Z,27.83
2022-09-07T19:26:29.156Z,27.82
2022-09-07T19:31:31.616Z,27.82
2022-09-07T19:36:38.293Z,27.83
2022-09-07T19:41:45.423Z,27.82
2022-09-07T19:46:47.609Z,27.79
2022-09-07T19:51:51.905Z,27.80
2022-09-07T19:56:53.982Z,27.79
2022-09-07T20:01:55.917Z,27.78
2022-09-07T20:06:58.049Z,27.77
2022-09-07T20:12:01.867Z,27.76
2022-09-07T20:17:03.917Z,27.78
2022-09-07T20:22:06.197Z,27.77
2022-09-07T20:27:08.633Z,27.72
2022-09-07T20:32:10.899Z,27.68
2022-09-07T20:37:17.384Z,27.66
2022-09-07T20:42:19.597Z,27.64
2022-09-07T20:47:25.972Z,27.62
2022-09-07T20:52:29.085Z,27.62
2022-09-07T20:57:31.308Z,27.64
2022-09-07T21:02:33.221Z,27.64
2022-09-07T21:07:37.637Z,27.65
2022-09-07T21:12:39.643Z,27.65
2022-09-07T21:17:41.494Z,27.67
2022-09-07T21:22:43.427Z,27.66
2022-09-07T21:27:49.170Z,27.64
2022-09-07T21:32:52.758Z,27.61
2022-09-07T21:37:57.480Z,27.58
2022-09-07T21:42:59.417Z,27.57
2022-09-07T21:48:01.414Z,27.55
2022-09-07T21:53:03.463Z,27.56
2022-09-07T21:58:05.335Z,27.54
2022-09-07T22:03:07.511Z,27.53
2022-09-07T22:08:09.445Z,27.53
2022-09-07T22:13:11.624Z,27.53
2022-09-07T22:18:13.799Z,27.52
2022-09-07T22:23:15.813Z,27.45
2022-09-07T22:28:17.854Z,27.40
2022-09-07T22:33:29.235Z,27.34
2022-09-07T22:38:31.481Z,27.27
2022-09-07T22:43:33.546Z,27.21
2022-09-07T22:48:35.524Z,27.18
2022-09-07T22:53:40.306Z,27.13
2022-09-07T22:58:47.352Z,27.10
2022-09-07T23:03:50.127Z,27.09
2022-09-07T23:08:53.512Z,27.09
2022-09-07T23:13:58.971Z,27.06
2022-09-07T23:19:01.458Z,27.01
2022-09-07T23:24:03.756Z,26.99
2022-09-07T23:29:06.747Z,26.92
2022-09-07T23:34:09.612Z,26.87
2022-09-07T23:39:11.842Z,26.85
2022-09-07T23:44:14.131Z,26.82
2022-09-07T23:49:26.667Z,26.80
2022-09-07T23:54:32.084Z,26.76
2022-09-07T23:59:34.123Z,26.73
